createdAt,value
2019-03-30T00:03:53.358Z,102586.45
2019-03-30T00:08:55.910Z,102587.42
2019-03-30T00:14:01.057Z,102578.00
2019-03-30T00:19:03.617Z,102574.00
2019-03-30T00:24:06.446Z,102563.13
2019-03-30T00:29:10.672Z,102560.23
2019-03-30T00:34:16.292Z,102550.65
2019-03-30T00:39:18.831Z,102553.78
2019-03-30T00:44:21.436Z,102534.22
2019-03-30T00:49:24.047Z,102534.61
2019-03-30T00:54:26.600Z,102525.37
2019-03-30T00:59:29.157Z,102521.34
2019-03-30T01:04:33.310Z,102511.97
2019-03-30T01:09:35.889Z,102504.24
2019-03-30T01:14:41.211Z,102501.72
2019-03-30T01:19:43.796Z,102495.77
2019-03-30T01:24:46.314Z,102492.61
2019-03-30T01:29:50.991Z,102483.87
2019-03-30T01:34:56.692Z,102479.38
2019-03-30T01:39:59.228Z,102472.69
2019-03-30T01:45:01.843Z,102464.28
2019-03-30T01:50:16.640Z,102458.42
2019-03-30T01:55:10.054Z,102449.52
2019-03-30T02:00:13.143Z,102449.95
2019-03-30T02:05:15.919Z,102441.35
2019-03-30T02:10:38.161Z,102435.86
2019-03-30T02:15:40.705Z,102430.53
2019-03-30T02:20:44.076Z,102426.19
2019-03-30T02:25:46.861Z,102425.80
2019-03-30T02:30:52.537Z,102425.45
2019-03-30T02:35:55.080Z,102426.63
2019-03-30T02:40:57.694Z,102413.38
2019-03-30T02:46:00.564Z,102414.66
2019-03-30T02:51:03.182Z,102410.34
2019-03-30T02:56:05.795Z,102409.48
2019-03-30T03:01:08.439Z,102409.84
2019-03-30T03:06:11.002Z,102401.19
2019-03-30T03:11:13.857Z,102393.86
2019-03-30T03:16:16.438Z,102389.45
2019-03-30T03:21:19.067Z,102394.13
2019-03-30T03:26:24.496Z,102383.59
2019-03-30T03:31:27.614Z,102384.39
2019-03-30T03:36:30.336Z,102383.95
2019-03-30T03:41:33.510Z,102388.66
2019-03-30T03:46:36.412Z,102381.20
2019-03-30T03:51:39.533Z,102383.84
2019-03-30T03:56:46.394Z,102378.64
2019-03-30T04:01:51.265Z,102375.35
2019-03-30T04:06:59.202Z,102370.77
2019-03-30T04:12:11.647Z,102366.28
2019-03-30T04:17:14.327Z,102367.88
2019-03-30T04:22:17.002Z,102365.23
2019-03-30T04:27:19.676Z,102359.27
2019-03-30T04:32:22.253Z,102357.98
2019-03-30T04:37:24.855Z,102354.89
2019-03-30T04:42:30.405Z,102347.86
2019-03-30T04:47:32.976Z,102349.35
2019-03-30T04:52:35.696Z,102344.41
2019-03-30T04:57:38.237Z,102347.73
2019-03-30T05:02:42.178Z,102345.58
2019-03-30T05:07:44.754Z,102343.00
2019-03-30T05:12:47.478Z,102345.44
2019-03-30T05:17:50.074Z,102339.98
2019-03-30T05:22:52.677Z,102334.45
2019-03-30T05:28:01.228Z,102334.84
2019-03-30T05:33:05.921Z,102328.39
2019-03-30T05:38:08.812Z,102319.77
2019-03-30T05:43:11.649Z,102319.04
2019-03-30T05:48:14.219Z,102319.44
2019-03-30T05:53:16.785Z,102315.40
2019-03-30T05:58:19.329Z,102306.51
2019-03-30T06:03:22.078Z,102304.69
2019-03-30T06:08:24.618Z,102306.66
2019-03-30T06:13:27.781Z,102298.75
2019-03-30T06:18:30.356Z,102295.10
2019-03-30T06:23:33.046Z,102302.87
2019-03-30T06:28:37.645Z,102303.73
2019-03-30T06:33:40.393Z,102307.13
2019-03-30T06:38:42.959Z,102306.66
2019-03-30T06:43:45.647Z,102307.31
2019-03-30T06:48:48.193Z,102304.80
2019-03-30T06:53:53.554Z,102311.87
2019-03-30T06:58:56.686Z,102311.87
2019-03-30T07:03:59.442Z,102313.60
2019-03-30T07:09:04.134Z,102311.30
2019-03-30T07:14:10.035Z,102315.61
2019-03-30T07:19:16.403Z,102321.56
2019-03-30T07:24:19.246Z,102313.98
2019-03-30T07:29:24.824Z,102313.98
2019-03-30T07:34:27.549Z,102319.46
2019-03-30T07:39:30.074Z,102319.46
2019-03-30T07:44:32.628Z,102322.94
2019-03-30T07:49:35.246Z,102316.55
2019-03-30T07:54:37.860Z,102322.73
2019-03-30T07:59:40.934Z,102315.77
2019-03-30T08:04:43.844Z,102315.77
2019-03-30T08:09:46.488Z,102315.80
2019-03-30T08:14:49.052Z,102312.30
2019-03-30T08:19:53.874Z,102315.55
2019-03-30T08:24:56.443Z,102315.80
2019-03-30T08:29:59.118Z,102321.34
2019-03-30T08:35:01.785Z,102319.31
2019-03-30T08:40:04.829Z,102312.75
2019-03-30T08:45:11.046Z,102299.16
2019-03-30T08:50:13.781Z,102302.59
2019-03-30T08:55:16.451Z,102302.59
2019-03-30T09:00:37.131Z,102308.63
2019-03-30T09:05:42.465Z,102308.63
2019-03-30T09:10:45.535Z,102315.92
2019-03-30T09:15:48.203Z,102306.16
2019-03-30T09:20:50.828Z,102305.05
2019-03-30T09:25:53.408Z,102301.03
2019-03-30T09:30:56.094Z,102301.29
2019-03-30T09:36:00.467Z,102303.06
2019-03-30T09:41:03.107Z,102297.56
2019-03-30T09:46:05.663Z,102292.67
2019-03-30T09:51:08.307Z,102287.47
2019-03-30T09:56:10.854Z,102284.70
2019-03-30T10:01:13.560Z,102283.19
2019-03-30T10:06:16.150Z,102282.14
2019-03-30T10:11:18.980Z,102274.87
2019-03-30T10:16:21.743Z,102272.75
2019-03-30T10:21:24.468Z,102272.45
2019-03-30T10:26:27.027Z,102272.20
2019-03-30T10:31:31.716Z,102268.86
2019-03-30T10:36:34.366Z,102266.02
2019-03-30T10:41:38.244Z,102261.24
2019-03-30T10:46:40.836Z,102263.17
2019-03-30T10:51:43.417Z,102261.30
2019-03-30T10:56:45.997Z,102260.53
2019-03-30T11:01:48.594Z,102257.41
2019-03-30T11:06:51.235Z,102252.89
2019-03-30T11:11:53.799Z,102245.33
2019-03-30T11:16:59.189Z,102241.95
2019-03-30T11:22:03.364Z,102243.94
2019-03-30T11:27:06.205Z,102243.58
2019-03-30T11:32:10.676Z,102243.21
2019-03-30T11:37:13.264Z,102246.27
2019-03-30T11:42:15.812Z,102248.61
2019-03-30T11:47:18.373Z,102244.44
2019-03-30T11:52:21.028Z,102246.58
2019-03-30T11:57:23.609Z,102242.41
2019-03-30T12:02:28.087Z,102243.22
2019-03-30T12:07:34.719Z,102237.20
2019-03-30T12:12:40.329Z,102238.84
2019-03-30T12:17:42.901Z,102239.13
2019-03-30T12:22:45.496Z,102236.68
2019-03-30T12:27:48.056Z,102238.83
2019-03-30T12:32:51.938Z,102228.95
2019-03-30T12:37:54.496Z,102220.64
2019-03-30T12:42:57.411Z,102226.61
2019-03-30T12:48:02.312Z,102219.02
2019-03-30T12:53:06.018Z,102211.93
2019-03-30T12:58:08.702Z,102216.25
2019-03-30T13:03:12.413Z,102208.50
2019-03-30T13:08:14.960Z,102206.17
2019-03-30T13:13:17.637Z,102196.55
2019-03-30T13:18:20.208Z,102191.53
2019-03-30T13:23:22.809Z,102197.35
2019-03-30T13:28:26.201Z,102194.00
2019-03-30T13:33:28.901Z,102193.13
2019-03-30T13:38:31.480Z,102188.23
2019-03-30T13:43:34.108Z,102191.66
2019-03-30T13:48:36.693Z,102176.45
2019-03-30T13:53:39.329Z,102185.39
2019-03-30T13:58:41.907Z,102176.28
2019-03-30T14:03:47.263Z,102175.36
2019-03-30T14:08:54.629Z,102176.41
2019-03-30T14:13:57.349Z,102181.55
2019-03-30T14:18:59.910Z,102182.48
2019-03-30T14:24:02.541Z,102176.55
2019-03-30T14:29:05.114Z,102179.78
2019-03-30T14:34:07.750Z,102173.30
2019-03-30T14:39:10.296Z,102170.45
2019-03-30T14:44:15.125Z,102177.61
2019-03-30T14:49:17.893Z,102162.95
2019-03-30T14:56:14.181Z,102162.24
2019-03-30T15:01:19.402Z,102159.73
2019-03-30T15:06:22.188Z,102164.81
2019-03-30T15:11:25.212Z,102163.14
2019-03-30T15:16:27.878Z,102161.28
2019-03-30T15:21:31.609Z,102159.58
2019-03-30T15:26:34.580Z,102164.14
2019-03-30T15:31:37.481Z,102163.64
2019-03-30T15:36:40.135Z,102160.09
2019-03-30T15:41:43.091Z,102154.81
2019-03-30T15:46:48.856Z,102154.30
2019-03-30T15:51:57.476Z,102155.48
2019-03-30T15:57:13.492Z,102159.02
2019-03-30T16:02:08.392Z,102158.38
2019-03-30T16:07:12.927Z,102161.95
2019-03-30T16:12:17.400Z,102164.16
2019-03-30T16:17:20.351Z,102161.48
2019-03-30T16:22:23.016Z,102167.48
2019-03-30T16:27:29.211Z,102161.87
2019-03-30T16:32:30.446Z,102161.18
2019-03-30T16:37:33.122Z,102173.84
2019-03-30T16:42:36.407Z,102172.39
2019-03-30T16:47:39.440Z,102175.13
2019-03-30T16:52:46.861Z,102177.17
2019-03-30T16:57:52.399Z,102178.62
2019-03-30T17:02:54.972Z,102181.12
2019-03-30T17:07:57.626Z,102175.74
2019-03-30T17:13:00.266Z,102181.25
2019-03-30T17:18:04.229Z,102189.01
2019-03-30T17:23:07.014Z,102186.67
2019-03-30T17:28:09.550Z,102192.67
2019-03-30T17:33:12.195Z,102183.00
2019-03-30T17:38:16.145Z,102190.59
2019-03-30T17:43:18.960Z,102189.19
2019-03-30T17:48:21.514Z,102187.08
2019-03-30T17:53:24.065Z,102192.35
2019-03-30T17:58:30.764Z,102185.91
2019-03-30T18:03:33.561Z,102186.99
2019-03-30T18:08:36.098Z,102192.44
2019-03-30T18:13:38.814Z,102193.31
2019-03-30T18:18:41.361Z,102193.02
2019-03-30T18:23:47.563Z,102196.31
2019-03-30T18:28:50.325Z,102204.52
2019-03-30T18:33:55.850Z,102214.10
2019-03-30T18:39:09.330Z,102211.70
2019-03-30T18:44:03.539Z,102226.16
2019-03-30T18:49:06.133Z,102224.08
2019-03-30T18:54:08.669Z,102235.26
2019-03-30T18:59:11.207Z,102239.36
2019-03-30T19:04:13.951Z,102244.20
2019-03-30T19:09:17.715Z,102240.91
2019-03-30T19:14:20.441Z,102251.75
2019-03-30T19:19:23.073Z,102251.11
2019-03-30T19:24:26.074Z,102253.97
2019-03-30T19:29:31.615Z,102256.01
2019-03-30T19:34:34.480Z,102253.16
2019-03-30T19:39:37.063Z,102257.57
2019-03-30T19:44:40.023Z,102254.08
2019-03-30T19:49:42.576Z,102260.27
2019-03-30T19:54:48.590Z,102262.67
2019-03-30T19:59:51.259Z,102261.79
2019-03-30T20:04:53.868Z,102257.84
2019-03-30T20:09:56.701Z,102260.44
2019-03-30T20:14:59.253Z,102263.94
2019-03-30T20:20:01.869Z,102272.53
2019-03-30T20:25:05.433Z,102262.47
2019-03-30T20:30:09.111Z,102273.40
2019-03-30T20:35:11.906Z,102271.22
2019-03-30T20:40:14.614Z,102270.06
2019-03-30T20:45:17.204Z,102280.66
2019-03-30T20:50:20.960Z,102280.95
2019-03-30T20:55:23.630Z,102288.43
2019-03-30T21:00:26.546Z,102288.13
2019-03-30T21:05:29.121Z,102288.13
2019-03-30T21:10:33.513Z,102288.88
2019-03-30T21:15:36.087Z,102287.43
2019-03-30T21:20:41.754Z,102299.60
2019-03-30T21:25:44.524Z,102299.60
2019-03-30T21:30:47.320Z,102291.97
2019-03-30T21:35:52.221Z,102296.22
2019-03-30T21:40:56.913Z,102291.13
2019-03-30T21:46:01.412Z,102294.02
2019-03-30T21:51:03.976Z,102292.06
2019-03-30T21:56:07.304Z,102290.45
2019-03-30T22:01:09.951Z,102301.98
2019-03-30T22:06:15.052Z,102301.98
2019-03-30T22:11:17.960Z,102312.56
2019-03-30T22:16:20.513Z,102312.56
2019-03-30T22:21:23.443Z,102310.61
2019-03-30T22:26:27.195Z,102320.03
2019-03-30T22:31:29.834Z,102315.08
2019-03-30T22:36:32.379Z,102322.61
2019-03-30T22:41:35.027Z,102320.62
2019-03-30T22:46:37.628Z,102322.38
2019-03-30T22:51:40.210Z,102339.30
2019-03-30T22:56:53.812Z,102339.30
2019-03-30T23:01:58.213Z,102348.20
2019-03-30T23:07:03.244Z,102348.47
2019-03-30T23:12:05.956Z,102343.92
2019-03-30T23:17:08.539Z,102348.16
2019-03-30T23:22:15.384Z,102348.16
2019-03-30T23:27:17.929Z,102355.67
2019-03-30T23:32:22.658Z,102350.86
2019-03-30T23:37:25.196Z,102352.59
2019-03-30T23:42:27.961Z,102354.27
2019-03-30T23:47:30.500Z,102352.17
2019-03-30T23:52:33.395Z,102345.50
2019-03-30T23:57:38.175Z,102348.22
